Time;durP1;ratioP1;P1;durP2;ratioP2;P2;SDS_P1;SDS_P2;PMS_P1;PMS_P2;Temp;Humidity;BMP_temperature;BMP_pressure;BME280_temperature;BME280_humidity;BME280_pressure;Samples;Min_cycle;Max_cycle;Signal;HPM_P1;HPM_P2
2021/06/15 00:02:09;;;;;;;36.30;21.63;;;17.70;99.90;;;;;;5092570;28;20234;-78
2021/06/15 00:04:35;;;;;;;30.23;21.03;;;17.80;99.90;;;;;;5092760;28;20645;-78
2021/06/15 00:07:03;;;;;;;32.20;21.80;;;17.90;99.90;;;;;;5093260;28;20630;-78
2021/06/15 00:09:29;;;;;;;37.20;21.67;;;17.90;99.90;;;;;;5092773;28;20576;-78
2021/06/15 00:11:58;;;;;;;34.93;21.30;;;17.90;99.90;;;;;;5092852;28;20193;-77
2021/06/15 00:14:25;;;;;;;34.17;22.03;;;17.90;99.90;;;;;;5093211;28;20285;-78
2021/06/15 00:16:51;;;;;;;37.00;21.13;;;18.10;99.90;;;;;;5093256;28;20190;-77
2021/06/15 00:19:18;;;;;;;28.87;20.97;;;18.10;99.90;;;;;;5093064;28;20187;-77
2021/06/15 00:21:45;;;;;;;33.37;20.30;;;18.10;99.90;;;;;;5092968;28;20187;-78
2021/06/15 00:24:12;;;;;;;33.73;21.27;;;18.10;99.90;;;;;;5092319;28;20268;-78
2021/06/15 00:26:39;;;;;;;33.40;20.70;;;18.10;99.90;;;;;;5092621;28;20237;-77
2021/06/15 00:29:07;;;;;;;33.43;22.80;;;18.20;99.90;;;;;;5092689;28;20190;-78
2021/06/15 00:31:34;;;;;;;41.27;22.87;;;18.20;99.90;;;;;;5092905;28;20191;-77
2021/06/15 00:34:02;;;;;;;34.67;22.37;;;18.20;99.90;;;;;;5092833;28;20197;-78
2021/06/15 00:36:28;;;;;;;39.00;22.40;;;18.30;99.90;;;;;;5092658;28;20194;-78
2021/06/15 00:38:55;;;;;;;33.53;22.00;;;18.10;99.90;;;;;;5092666;28;20645;-78
2021/06/15 00:41:22;;;;;;;32.70;19.90;;;18.10;99.90;;;;;;5088181;28;20188;-77
2021/06/15 00:43:49;;;;;;;33.03;19.93;;;18.00;99.90;;;;;;5092580;28;20803;-78
2021/06/15 00:46:18;;;;;;;30.60;20.73;;;17.80;99.90;;;;;;5092766;28;20190;-78
2021/06/15 00:48:46;;;;;;;31.50;20.97;;;18.00;99.90;;;;;;5084090;28;20606;-78
2021/06/15 00:51:14;;;;;;;33.77;19.23;;;17.90;99.90;;;;;;5092663;28;20211;-78
2021/06/15 00:53:41;;;;;;;33.13;18.77;;;17.80;99.90;;;;;;5092403;28;20194;-78
2021/06/15 00:56:08;;;;;;;30.33;19.20;;;17.80;99.90;;;;;;5092794;28;20191;-78
2021/06/15 00:58:35;;;;;;;33.63;19.60;;;17.90;99.90;;;;;;5092291;28;20223;-78
2021/06/15 01:01:04;;;;;;;34.07;20.83;;;18.00;99.90;;;;;;5092236;28;20198;-77
2021/06/15 01:03:32;;;;;;;30.50;17.80;;;18.00;99.90;;;;;;5092582;28;20254;-77
2021/06/15 01:06:01;;;;;;;31.37;19.90;;;17.80;99.90;;;;;;5074479;28;20195;-77
2021/06/15 01:08:40;;;;;;;36.20;20.93;;;17.70;99.90;;;;;;5094045;28;20195;-78
2021/06/15 01:11:16;;;;;;;35.20;20.83;;;17.60;99.90;;;;;;5096579;28;20191;-77
2021/06/15 01:13:55;;;;;;;34.33;21.20;;;17.50;99.90;;;;;;5096456;28;20222;-77
2021/06/15 01:16:30;;;;;;;34.50;20.10;;;17.50;99.90;;;;;;5096184;28;20613;-78
2021/06/15 01:19:05;;;;;;;28.83;18.87;;;17.40;99.90;;;;;;5096370;28;20287;-78
2021/06/15 01:21:37;;;;;;;29.87;19.70;;;17.40;99.90;;;;;;5086040;28;20211;-77
2021/06/15 01:24:13;;;;;;;28.43;18.93;;;17.50;99.90;;;;;;5096327;28;20207;-78
2021/06/15 01:27:27;;;;;;;30.00;18.00;;;17.40;99.90;;;;;;5095831;28;20530;-78
2021/06/15 01:29:59;;;;;;;30.40;18.97;;;17.30;99.90;;;;;;5033554;28;20203;-78
2021/06/15 01:32:29;;;;;;;33.97;22.53;;;17.20;99.90;;;;;;5033508;28;20192;-78
2021/06/15 01:34:57;;;;;;;43.83;28.80;;;17.20;99.90;;;;;;5070343;28;20524;-78
2021/06/15 01:37:30;;;;;;;47.57;30.27;;;17.20;99.90;;;;;;5095526;28;20250;-77
2021/06/15 01:39:59;;;;;;;45.53;29.03;;;17.10;99.90;;;;;;5096207;28;20218;-78
2021/06/15 01:42:32;;;;;;;48.77;30.93;;;17.00;99.90;;;;;;5090700;28;20220;-78
2021/06/15 01:45:05;;;;;;;48.50;30.63;;;16.80;99.90;;;;;;5095737;28;20230;-77
2021/06/15 01:47:32;;;;;;;51.37;31.17;;;16.80;99.90;;;;;;5095437;28;20229;-78
2021/06/15 01:50:01;;;;;;;50.10;33.23;;;16.90;99.90;;;;;;5095225;28;20645;-77
2021/06/15 01:52:31;;;;;;;55.77;34.50;;;16.80;99.90;;;;;;5095594;28;20195;-77
2021/06/15 01:55:00;;;;;;;61.57;35.87;;;16.60;99.90;;;;;;5095916;28;20183;-77
2021/06/15 01:57:27;;;;;;;66.97;37.57;;;16.50;99.90;;;;;;5095311;28;20281;-78
2021/06/15 01:59:58;;;;;;;59.90;36.83;;;16.50;99.90;;;;;;5095459;28;20222;-77
2021/06/15 02:02:27;;;;;;;59.40;36.73;;;16.40;99.90;;;;;;5094938;28;20598;-77
2021/06/15 02:04:57;;;;;;;61.47;37.40;;;16.40;99.90;;;;;;5095294;28;20317;-78
2021/06/15 02:07:27;;;;;;;57.33;35.77;;;16.40;99.90;;;;;;5095504;28;20191;-78
2021/06/15 02:10:02;;;;;;;56.70;36.00;;;16.50;99.90;;;;;;5095294;28;20265;-77
2021/06/15 02:12:32;;;;;;;57.60;35.63;;;16.50;99.90;;;;;;5095223;28;20285;-78
2021/06/15 02:15:00;;;;;;;57.97;33.53;;;16.50;99.90;;;;;;5095090;28;20210;-77
2021/06/15 02:17:31;;;;;;;59.87;34.03;;;16.50;99.90;;;;;;5095203;28;20244;-78
2021/06/15 02:19:59;;;;;;;55.57;34.43;;;16.60;99.90;;;;;;5093935;28;20191;-78
2021/06/15 02:22:26;;;;;;;59.93;34.00;;;16.60;99.90;;;;;;5094790;28;20277;-78
2021/06/15 02:24:56;;;;;;;53.30;34.03;;;16.70;99.90;;;;;;5094999;28;20654;-77
2021/06/15 02:27:25;;;;;;;53.80;33.17;;;16.70;99.90;;;;;;5095200;28;20324;-77
2021/06/15 02:29:53;;;;;;;57.10;34.80;;;16.70;99.90;;;;;;5094752;28;20222;-78
2021/06/15 02:32:25;;;;;;;52.23;32.83;;;16.60;99.90;;;;;;5094917;28;20620;-77
2021/06/15 02:34:54;;;;;;;57.73;33.27;;;16.50;99.90;;;;;;5095146;28;20183;-78
2021/06/15 02:37:28;;;;;;;54.80;34.57;;;16.50;99.90;;;;;;5094893;28;20255;-77
2021/06/15 02:39:56;;;;;;;55.50;33.73;;;16.50;99.90;;;;;;5094667;28;20205;-77
2021/06/15 02:42:24;;;;;;;50.83;32.97;;;16.50;99.90;;;;;;5090832;28;20270;-77
2021/06/15 02:44:53;;;;;;;53.23;35.10;;;16.50;99.90;;;;;;5096311;28;20219;-77
2021/06/15 02:47:21;;;;;;;50.83;33.27;;;16.60;99.90;;;;;;5095393;28;20218;-77
2021/06/15 02:49:52;;;;;;;56.03;34.77;;;16.50;99.90;;;;;;5095742;28;20191;-77
2021/06/15 02:52:29;;;;;;;54.33;34.63;;;16.40;99.90;;;;;;5095247;28;20542;-77
2021/06/15 02:55:00;;;;;;;56.67;34.80;;;16.40;99.90;;;;;;5095192;28;20290;-77
2021/06/15 02:57:27;;;;;;;58.67;36.00;;;16.30;99.90;;;;;;5094736;28;20191;-77
2021/06/15 02:59:55;;;;;;;60.13;35.70;;;16.30;99.90;;;;;;5094569;28;20285;-77
2021/06/15 03:02:23;;;;;;;56.40;35.30;;;16.40;99.90;;;;;;5094536;28;20650;-77
2021/06/15 03:04:49;;;;;;;52.57;34.53;;;16.30;99.90;;;;;;5094064;28;20231;-77
2021/06/15 03:07:17;;;;;;;61.97;36.80;;;16.30;99.90;;;;;;5094610;28;20290;-78
2021/06/15 03:09:46;;;;;;;55.23;35.70;;;16.30;99.90;;;;;;5094272;28;20197;-77
2021/06/15 03:12:18;;;;;;;55.87;37.27;;;16.30;99.90;;;;;;5094438;28;20197;-77
2021/06/15 03:14:49;;;;;;;57.00;37.17;;;16.20;99.90;;;;;;5086172;28;20215;-77
2021/06/15 03:17:17;;;;;;;58.63;37.87;;;16.10;99.90;;;;;;5094314;28;20282;-77
2021/06/15 03:19:49;;;;;;;59.67;39.73;;;16.10;99.90;;;;;;5094173;28;20219;-78
2021/06/15 03:22:19;;;;;;;68.03;39.23;;;16.20;99.90;;;;;;5093900;28;20269;-78
2021/06/15 03:24:53;;;;;;;62.27;38.87;;;16.20;99.90;;;;;;5094037;28;20698;-78
2021/06/15 03:27:30;;;;;;;63.37;39.60;;;16.20;99.90;;;;;;5094090;28;20230;-77
2021/06/15 03:29:57;;;;;;;62.33;38.73;;;16.10;99.90;;;;;;5094244;28;20198;-78
2021/06/15 03:32:26;;;;;;;65.20;39.97;;;16.10;99.90;;;;;;5093344;28;20637;-78
2021/06/15 03:34:55;;;;;;;60.83;37.80;;;16.10;99.90;;;;;;5093517;28;20234;-78
2021/06/15 03:37:24;;;;;;;63.17;39.00;;;16.10;99.90;;;;;;5093756;28;20607;-78
2021/06/15 03:39:57;;;;;;;63.37;39.63;;;16.20;99.90;;;;;;5093592;28;20226;-77
2021/06/15 03:42:26;;;;;;;63.40;38.90;;;16.20;99.90;;;;;;5083984;28;20282;-78
2021/06/15 03:44:58;;;;;;;65.80;39.27;;;16.30;99.90;;;;;;5093592;28;20748;-78
2021/06/15 03:47:26;;;;;;;63.67;37.90;;;16.30;99.90;;;;;;5093901;28;20219;-78
2021/06/15 03:49:55;;;;;;;59.27;38.07;;;16.20;99.90;;;;;;5096070;28;20558;-78
2021/06/15 03:52:24;;;;;;;59.03;38.13;;;16.30;99.90;;;;;;5093252;28;20187;-78
2021/06/15 03:54:55;;;;;;;61.77;38.57;;;16.50;99.90;;;;;;5093286;28;20281;-78
2021/06/15 03:57:23;;;;;;;57.97;37.40;;;16.50;99.90;;;;;;5093209;28;20689;-78
2021/06/15 03:59:51;;;;;;;53.93;35.03;;;16.50;99.90;;;;;;5093343;28;20199;-78
2021/06/15 04:02:20;;;;;;;60.53;35.97;;;16.50;99.90;;;;;;5092955;28;20289;-78
2021/06/15 04:04:48;;;;;;;51.90;34.27;;;16.60;99.90;;;;;;5093050;28;20250;-78
2021/06/15 04:07:20;;;;;;;53.20;32.67;;;16.70;99.90;;;;;;5092452;28;20256;-78
2021/06/15 04:09:49;;;;;;;55.50;32.50;;;16.70;99.90;;;;;;5089835;28;20197;-78
2021/06/15 04:12:20;;;;;;;51.83;31.17;;;16.80;99.90;;;;;;5092553;28;20248;-78
2021/06/15 04:14:48;;;;;;;59.03;31.33;;;16.90;99.90;;;;;;5092318;28;20191;-78
2021/06/15 04:17:17;;;;;;;55.83;32.07;;;17.00;99.90;;;;;;5091184;28;20199;-78
2021/06/15 04:19:47;;;;;;;63.83;30.03;;;17.10;99.90;;;;;;5091603;28;20293;-78
2021/06/15 04:22:16;;;;;;;46.03;30.50;;;17.00;99.90;;;;;;5091170;28;20187;-78
2021/06/15 04:24:47;;;;;;;44.90;28.60;;;17.00;99.90;;;;;;5090217;28;20723;-78
2021/06/15 04:27:15;;;;;;;39.87;28.90;;;17.00;99.90;;;;;;5090294;28;20530;-78
2021/06/15 04:29:44;;;;;;;48.20;29.40;;;17.10;99.90;;;;;;5090284;28;20195;-78
2021/06/15 04:32:13;;;;;;;42.70;29.40;;;17.20;99.90;;;;;;5090586;28;20197;-77
2021/06/15 04:34:43;;;;;;;51.00;29.73;;;17.20;99.90;;;;;;5091064;28;20618;-77
2021/06/15 04:37:12;;;;;;;46.73;29.20;;;17.30;99.90;;;;;;5091334;28;20198;-77
2021/06/15 04:39:48;;;;;;;43.17;28.03;;;17.40;99.90;;;;;;5084051;28;20286;-77
2021/06/15 04:42:17;;;;;;;41.60;27.10;;;17.60;99.90;;;;;;5091272;28;20551;-77
2021/06/15 04:44:48;;;;;;;38.07;27.03;;;17.50;99.90;;;;;;5095737;28;20222;-78
2021/06/15 04:47:23;;;;;;;40.53;27.33;;;17.60;99.90;;;;;;5095659;28;20273;-78
2021/06/15 04:49:57;;;;;;;43.13;24.97;;;18.00;99.90;;;;;;5094847;28;20277;-78
2021/06/15 04:52:26;;;;;;;35.03;25.60;;;18.20;99.90;;;;;;5095425;28;20191;-78
2021/06/15 04:54:54;;;;;;;36.80;24.90;;;18.50;99.90;;;;;;5095936;28;20599;-78
2021/06/15 04:57:25;;;;;;;35.10;23.90;;;18.70;99.90;;;;;;5095697;28;20221;-78
2021/06/15 04:59:57;;;;;;;49.17;25.87;;;18.60;99.90;;;;;;5095271;28;20186;-78
2021/06/15 05:02:25;;;;;;;35.67;23.27;;;18.60;99.90;;;;;;5095486;28;20554;-78
2021/06/15 05:04:54;;;;;;;35.97;23.03;;;19.00;99.90;;;;;;5095216;28;20308;-77
2021/06/15 05:07:22;;;;;;;50.90;24.97;;;19.10;99.90;;;;;;5094941;28;20223;-78
2021/06/15 05:09:52;;;;;;;38.50;23.63;;;19.20;99.90;;;;;;5094688;28;20290;-78
2021/06/15 05:12:20;;;;;;;41.60;24.63;;;19.20;99.90;;;;;;5094447;28;20191;-78
2021/06/15 05:14:48;;;;;;;39.33;23.37;;;19.30;99.90;;;;;;5087252;28;20238;-78
2021/06/15 05:17:20;;;;;;;36.07;23.50;;;19.20;99.90;;;;;;5095014;28;20194;-77
2021/06/15 05:19:47;;;;;;;40.63;23.67;;;19.10;99.90;;;;;;5086505;28;20317;-77
2021/06/15 05:22:29;;;;;;;46.20;22.77;;;19.00;99.90;;;;;;5086627;28;20670;-79
2021/06/15 05:25:02;;;;;;;33.50;20.80;;;19.00;99.90;;;;;;5092300;28;20203;-79
2021/06/15 05:28:02;;;;;;;34.67;22.10;;;19.10;99.90;;;;;;5087087;28;20270;-78
2021/06/15 05:30:30;;;;;;;27.57;21.27;;;19.30;99.90;;;;;;5095567;28;20663;-78
2021/06/15 05:32:59;;;;;;;38.00;21.23;;;19.40;99.90;;;;;;5095140;28;20266;-78
2021/06/15 05:35:27;;;;;;;29.50;21.40;;;19.60;99.90;;;;;;5084462;28;20653;-80
2021/06/15 05:37:54;;;;;;;29.07;21.33;;;20.30;99.90;;;;;;5091038;28;20195;-78
2021/06/15 05:40:21;;;;;;;29.37;21.40;;;21.10;99.90;;;;;;5087622;28;20294;-78
2021/06/15 05:42:48;;;;;;;28.87;20.13;;;21.60;99.90;;;;;;5081557;28;20210;-78
2021/06/15 05:45:15;;;;;;;36.77;20.93;;;22.20;99.90;;;;;;5082418;28;20214;-78
2021/06/15 05:47:44;;;;;;;32.92;20.73;;;22.60;99.90;;;;;;5082884;28;20187;-78
2021/06/15 05:50:14;;;;;;;26.52;18.10;;;23.30;99.90;;;;;;5088600;28;20605;-78
2021/06/15 05:52:41;;;;;;;25.30;18.90;;;23.80;99.90;;;;;;5088125;28;20205;-79
2021/06/15 05:55:11;;;;;;;25.65;18.33;;;24.20;99.90;;;;;;5088569;28;20721;-79
2021/06/15 05:57:39;;;;;;;23.95;18.38;;;24.40;99.90;;;;;;5093994;28;20203;-79
2021/06/15 06:00:08;;;;;;;29.58;17.83;;;24.80;99.90;;;;;;5078113;28;20195;-78
2021/06/15 06:02:35;;;;;;;28.30;17.52;;;25.40;99.90;;;;;;5091774;28;20198;-79
2021/06/15 06:08:04;;;;;;;24.23;16.95;;;25.90;99.90;;;;;;5093434;28;20625;-80
2021/06/15 06:08:08;;;;;;;27.08;16.90;;;25.80;99.90;;;;;;5095341;28;20201;-73
2021/06/15 06:10:37;;;;;;;33.05;17.92;;;26.30;99.90;;;;;;5092806;28;20183;-79
2021/06/15 06:13:06;;;;;;;22.88;17.02;;;26.30;99.90;;;;;;5083866;28;20615;-79
2021/06/15 06:15:33;;;;;;;25.20;17.20;;;26.40;99.90;;;;;;5093903;28;20199;-79
2021/06/15 06:18:06;;;;;;;26.65;16.48;;;26.70;99.90;;;;;;5088658;28;20191;-79
2021/06/15 06:20:34;;;;;;;34.03;16.52;;;26.40;99.90;;;;;;5093270;28;20259;-79
2021/06/15 06:23:03;;;;;;;26.45;15.38;;;27.30;99.90;;;;;;5078184;28;20962;-79
2021/06/15 06:25:30;;;;;;;21.48;15.25;;;27.20;99.90;;;;;;5091176;28;20309;-80
2021/06/15 06:27:57;;;;;;;23.98;15.40;;;27.00;99.90;;;;;;5084759;28;20638;-78
2021/06/15 06:30:24;;;;;;;29.48;15.50;;;27.00;99.90;;;;;;5077908;28;20701;-80
2021/06/15 06:32:51;;;;;;;21.35;14.65;;;27.20;99.90;;;;;;5075108;28;20192;-79
2021/06/15 06:35:18;;;;;;;22.95;14.38;;;26.70;99.90;;;;;;5080760;28;20283;-80
2021/06/15 06:37:45;;;;;;;19.20;14.43;;;27.40;99.90;;;;;;5077327;28;20289;-78
2021/06/15 06:40:15;;;;;;;18.95;13.20;;;27.70;99.90;;;;;;5086846;28;20282;-79
2021/06/15 06:42:42;;;;;;;17.80;12.90;;;28.00;99.90;;;;;;5081511;28;20200;-78
2021/06/15 06:45:10;;;;;;;15.90;12.43;;;28.30;99.90;;;;;;5080325;28;20225;-78
2021/06/15 06:47:37;;;;;;;17.30;13.10;;;27.90;99.90;;;;;;5078015;28;20692;-78
2021/06/15 06:50:05;;;;;;;20.02;13.50;;;28.40;99.90;;;;;;5073828;28;20559;-78
2021/06/15 06:52:32;;;;;;;19.35;13.07;;;28.70;99.90;;;;;;5094225;28;20251;-78
2021/06/15 06:54:59;;;;;;;19.80;13.20;;;28.80;99.90;;;;;;5092282;28;20538;-80
2021/06/15 06:57:28;;;;;;;20.48;12.95;;;28.90;99.90;;;;;;5093986;28;20195;-80
2021/06/15 06:59:55;;;;;;;21.00;11.93;;;27.90;99.90;;;;;;5094023;28;20593;-78
2021/06/15 07:02:21;;;;;;;15.45;11.18;;;28.00;99.90;;;;;;5094225;28;20289;-78
2021/06/15 07:04:48;;;;;;;13.65;11.25;;;27.70;99.90;;;;;;5093090;28;20624;-79
2021/06/15 07:07:15;;;;;;;18.73;10.50;;;27.50;99.90;;;;;;5077783;28;20278;-78
2021/06/15 07:09:42;;;;;;;14.18;10.57;;;27.40;99.90;;;;;;5073558;28;20223;-78
2021/06/15 07:12:09;;;;;;;18.48;11.07;;;27.40;99.90;;;;;;5073444;28;20226;-77
2021/06/15 07:14:38;;;;;;;12.77;10.10;;;27.60;99.90;;;;;;5084277;28;20226;-78
2021/06/15 07:17:05;;;;;;;17.33;10.38;;;27.30;99.90;;;;;;5082530;28;20279;-80
2021/06/15 07:19:32;;;;;;;11.40;9.85;;;27.40;99.90;;;;;;5089171;28;20301;-78
2021/06/15 07:21:59;;;;;;;11.15;9.65;;;28.00;99.90;;;;;;5087203;28;20278;-79
2021/06/15 07:24:26;;;;;;;11.32;8.80;;;27.90;99.90;;;;;;5093657;28;20715;-79
2021/06/15 07:26:53;;;;;;;13.18;9.25;;;27.20;99.90;;;;;;5093518;28;20285;-78
2021/06/15 07:29:20;;;;;;;11.45;8.55;;;27.30;99.90;;;;;;5093162;28;20194;-81
2021/06/15 07:31:48;;;;;;;12.43;7.63;;;28.30;99.90;;;;;;5093421;28;20249;-80
2021/06/15 07:34:15;;;;;;;11.02;8.38;;;28.70;99.90;;;;;;5093206;28;20287;-78
2021/06/15 07:36:42;;;;;;;14.05;9.00;;;29.00;99.90;;;;;;5093487;28;20227;-80
2021/06/15 07:39:09;;;;;;;10.38;8.35;;;28.90;99.90;;;;;;5087867;28;20219;-78
2021/06/15 07:41:37;;;;;;;10.15;9.13;;;28.90;99.90;;;;;;5062771;28;20299;-81
2021/06/15 07:44:05;;;;;;;11.93;8.02;;;28.60;99.90;;;;;;5092573;28;20222;-78
2021/06/15 07:46:32;;;;;;;13.80;7.65;;;29.10;99.90;;;;;;5095107;28;20223;-80
2021/06/15 07:49:00;;;;;;;10.70;7.32;;;28.20;99.90;;;;;;5095281;28;20195;-79
2021/06/15 07:51:27;;;;;;;10.63;8.07;;;28.90;99.90;;;;;;5093158;28;20588;-77
2021/06/15 07:53:55;;;;;;;12.18;7.72;;;29.10;99.90;;;;;;5092919;28;20242;-80
2021/06/15 07:56:24;;;;;;;9.60;6.70;;;28.40;99.90;;;;;;5092868;28;20252;-78
2021/06/15 07:58:51;;;;;;;8.45;6.65;;;28.90;99.90;;;;;;5096574;28;20186;-78
2021/06/15 08:01:18;;;;;;;8.80;6.65;;;28.40;99.90;;;;;;5073266;28;20203;-79
2021/06/15 08:03:47;;;;;;;8.30;6.38;;;27.90;99.90;;;;;;5090900;28;20328;-78
2021/06/15 08:06:15;;;;;;;9.73;6.22;;;28.20;99.90;;;;;;5081803;28;20676;-78
2021/06/15 08:08:42;;;;;;;6.43;5.75;;;29.10;99.90;;;;;;5088639;28;20208;-78
2021/06/15 08:11:09;;;;;;;8.25;5.80;;;28.80;99.90;;;;;;5079234;28;20218;-78
2021/06/15 08:13:36;;;;;;;8.50;6.13;;;28.40;99.90;;;;;;5089759;28;20605;-79
2021/06/15 08:16:03;;;;;;;7.82;5.70;;;28.10;99.90;;;;;;5092780;28;20716;-80
2021/06/15 08:18:31;;;;;;;9.55;4.93;;;29.20;99.90;;;;;;5093237;28;20248;-79
2021/06/15 08:20:58;;;;;;;9.90;5.28;;;29.20;99.90;;;;;;5093042;28;20226;-80
2021/06/15 08:23:28;;;;;;;6.93;5.47;;;29.70;99.90;;;;;;5092730;28;20234;-78
2021/06/15 08:25:56;;;;;;;10.00;6.00;;;29.20;99.90;;;;;;5092624;28;20214;-79
2021/06/15 08:28:23;;;;;;;8.70;5.57;;;28.70;99.90;;;;;;5092609;28;20298;-79
2021/06/15 08:30:51;;;;;;;6.68;5.05;;;29.00;99.90;;;;;;5092656;28;20240;-79
2021/06/15 08:33:18;;;;;;;7.20;4.18;;;29.20;99.90;;;;;;5092581;28;20252;-78
2021/06/15 08:35:45;;;;;;;8.02;4.30;;;28.90;99.90;;;;;;5091141;28;20199;-78
2021/06/15 08:38:12;;;;;;;8.13;4.68;;;28.30;99.90;;;;;;5085595;28;20762;-78
2021/06/15 08:40:41;;;;;;;6.72;4.70;;;29.10;99.90;;;;;;5081922;28;20261;-77
2021/06/15 08:43:08;;;;;;;8.25;4.22;;;28.40;99.90;;;;;;5086380;28;20191;-78
2021/06/15 08:45:36;;;;;;;9.30;4.03;;;27.90;99.90;;;;;;5087643;28;20307;-78
2021/06/15 08:48:02;;;;;;;7.22;4.05;;;27.90;99.90;;;;;;5088234;28;20286;-80
2021/06/15 08:50:29;;;;;;;5.53;4.28;;;27.60;99.90;;;;;;5091373;28;20286;-78
2021/06/15 08:52:57;;;;;;;9.20;4.10;;;27.90;99.90;;;;;;5086464;28;20227;-78
2021/06/15 08:55:30;;;;;;;11.02;4.45;;;27.90;99.90;;;;;;5072029;28;20219;-78
2021/06/15 08:58:11;;;;;;;9.27;4.20;;;27.20;99.90;;;;;;5071605;28;20192;-81
2021/06/15 09:00:38;;;;;;;9.88;4.05;;;27.80;99.90;;;;;;5071813;28;20286;-78
2021/06/15 09:03:05;;;;;;;5.40;3.78;;;27.70;99.90;;;;;;5077807;28;20616;-80
2021/06/15 09:05:32;;;;;;;6.55;4.35;;;26.90;99.90;;;;;;5083974;28;20306;-78
2021/06/15 09:08:05;;;;;;;6.43;3.80;;;27.00;99.90;;;;;;5091703;28;20237;-80
2021/06/15 09:10:34;;;;;;;5.35;4.28;;;27.50;99.90;;;;;;5092195;28;20198;-80
2021/06/15 09:13:04;;;;;;;6.18;3.92;;;27.30;99.90;;;;;;5092013;28;20195;-79
2021/06/15 09:15:31;;;;;;;6.22;4.10;;;28.00;99.90;;;;;;5092167;28;20225;-78
2021/06/15 09:17:58;;;;;;;5.07;4.03;;;28.80;99.90;;;;;;5091807;28;20226;-79
2021/06/15 09:20:28;;;;;;;5.20;4.07;;;28.70;99.90;;;;;;5078873;28;20203;-79
2021/06/15 09:23:01;;;;;;;8.05;3.72;;;28.50;99.90;;;;;;5087849;28;20281;-78
2021/06/15 09:25:28;;;;;;;5.13;3.33;;;28.80;99.90;;;;;;5079868;28;20334;-78
2021/06/15 09:27:58;;;;;;;6.22;3.45;;;28.80;99.90;;;;;;5086485;28;20219;-79
2021/06/15 09:30:28;;;;;;;6.90;3.63;;;29.10;99.90;;;;;;5087118;28;20191;-78
2021/06/15 09:32:56;;;;;;;5.47;3.40;;;29.50;99.90;;;;;;5085469;28;20261;-78
2021/06/15 09:35:28;;;;;;;4.40;3.22;;;29.80;99.90;;;;;;5087517;28;20555;-81
2021/06/15 09:37:57;;;;;;;3.38;3.03;;;30.20;99.90;;;;;;5087160;28;20192;-81
2021/06/15 09:40:26;;;;;;;4.00;3.30;;;30.10;99.90;;;;;;5075677;28;20593;-78
2021/06/15 09:43:00;;;;;;;4.25;2.97;;;30.70;99.90;;;;;;5095250;28;20668;-79
2021/06/15 09:45:31;;;;;;;5.72;3.05;;;30.60;99.90;;;;;;5094590;28;21268;-79
2021/06/15 09:48:21;;;;;;;5.70;3.10;;;29.80;99.90;;;;;;5094624;28;20516;-74
2021/06/15 09:50:48;;;;;;;9.27;2.83;;;29.30;99.90;;;;;;5094779;28;20282;-78
2021/06/15 09:53:26;;;;;;;5.82;2.42;;;29.40;99.90;;;;;;5091770;28;20299;-78
2021/06/15 09:55:54;;;;;;;3.95;2.45;;;28.90;99.90;;;;;;5091987;28;20198;-81
2021/06/15 09:58:40;;;;;;;2.47;1.90;;;29.50;99.90;;;;;;5083976;28;20223;-79
2021/06/15 10:01:09;;;;;;;5.38;2.20;;;29.70;99.90;;;;;;5084408;28;20204;-79
2021/06/15 10:03:36;;;;;;;2.95;1.98;;;29.50;99.90;;;;;;5093902;28;20199;-78
2021/06/15 10:06:04;;;;;;;2.38;1.70;;;29.30;99.90;;;;;;5085596;28;20269;-79
2021/06/15 10:08:43;;;;;;;2.53;1.67;;;29.00;99.90;;;;;;5087037;28;20190;-78
2021/06/15 10:11:11;;;;;;;3.25;1.50;;;28.90;99.90;;;;;;5089949;28;20214;-77
2021/06/15 10:13:38;;;;;;;3.20;1.88;;;28.90;99.90;;;;;;5094016;28;20209;-78
2021/06/15 10:16:06;;;;;;;4.43;1.83;;;28.10;99.90;;;;;;5094175;28;20289;-79
2021/06/15 10:18:35;;;;;;;2.95;1.50;;;28.20;99.90;;;;;;5094478;28;20190;-78
2021/06/15 10:21:02;;;;;;;4.47;1.80;;;28.30;99.90;;;;;;5094565;28;20207;-77
2021/06/15 10:23:29;;;;;;;3.03;1.60;;;29.20;99.90;;;;;;5092627;28;20305;-77
2021/06/15 10:25:58;;;;;;;3.63;2.00;;;29.30;99.90;;;;;;5081394;28;20299;-78
2021/06/15 10:28:25;;;;;;;4.40;1.90;;;29.80;99.90;;;;;;5091589;28;20273;-77
2021/06/15 10:31:00;;;;;;;4.28;1.80;;;30.20;99.90;;;;;;5091751;28;20277;-77
2021/06/15 10:33:27;;;;;;;2.00;1.73;;;30.00;99.90;;;;;;5076108;28;20223;-77
2021/06/15 10:35:58;;;;;;;3.53;1.70;;;30.10;99.90;;;;;;5092103;28;20309;-77
2021/06/15 10:38:42;;;;;;;3.58;1.90;;;29.60;99.90;;;;;;5070198;28;20290;-77
2021/06/15 10:41:19;;;;;;;4.20;2.63;;;28.90;99.90;;;;;;5088521;28;20213;-77
2021/06/15 10:43:46;;;;;;;5.05;2.10;;;28.80;99.90;;;;;;5084825;28;20186;-77
2021/06/15 10:46:31;;;;;;;3.35;1.85;;;29.20;99.90;;;;;;5079709;28;20302;-77
2021/06/15 10:49:03;;;;;;;5.78;2.47;;;29.80;99.90;;;;;;5076181;28;20553;-76
2021/06/15 10:51:41;;;;;;;5.22;2.50;;;29.60;99.90;;;;;;5075092;28;20183;-77
2021/06/15 10:54:30;;;;;;;4.72;1.92;;;29.10;99.90;;;;;;5072404;28;20192;-78
2021/06/15 10:57:26;;;;;;;2.20;1.70;;;29.60;99.90;;;;;;5073686;28;20183;-76
2021/06/15 11:00:11;;;;;;;8.10;2.10;;;30.80;99.90;;;;;;5079607;28;20627;-76
2021/06/15 11:02:39;;;;;;;5.40;2.10;;;30.80;99.90;;;;;;5082879;28;20241;-76
2021/06/15 11:05:40;;;;;;;2.47;1.90;;;29.70;99.90;;;;;;5085397;28;20217;-77
2021/06/15 11:08:20;;;;;;;8.35;1.70;;;28.80;99.90;;;;;;5082745;28;20229;-76
2021/06/15 11:10:50;;;;;;;3.30;2.10;;;29.10;99.90;;;;;;5074339;28;20625;-77
2021/06/15 11:13:18;;;;;;;5.22;1.90;;;29.50;99.90;;;;;;5080604;28;20641;-76
2021/06/15 11:15:58;;;;;;;8.52;1.80;;;28.40;99.90;;;;;;5076331;28;20735;-76
2021/06/15 11:18:26;;;;;;;2.85;1.98;;;28.50;99.90;;;;;;5079181;28;20207;-77
2021/06/15 11:20:53;;;;;;;4.97;2.40;;;29.30;99.90;;;;;;5082475;28;20211;-77
2021/06/15 11:23:29;;;;;;;3.00;2.10;;;29.70;99.90;;;;;;5074194;28;20211;-77
2021/06/15 11:26:01;;;;;;;3.17;2.03;;;29.40;99.90;;;;;;5071993;28;20657;-77
2021/06/15 11:28:42;;;;;;;2.75;1.88;;;28.60;99.90;;;;;;5080340;28;20184;-76
2021/06/15 11:31:35;;;;;;;3.38;2.33;;;28.00;99.90;;;;;;5083873;28;20745;-76
2021/06/15 11:34:20;;;;;;;2.40;2.20;;;28.00;99.90;;;;;;5053990;28;20203;-76
2021/06/15 11:36:53;;;;;;;3.33;2.20;;;28.70;99.90;;;;;;5089371;28;20190;-78
2021/06/15 11:39:32;;;;;;;5.78;1.92;;;29.10;99.90;;;;;;5070667;28;20642;-76
2021/06/15 11:42:27;;;;;;;3.55;2.20;;;29.20;99.90;;;;;;5076484;28;20183;-76
2021/06/15 11:44:59;;;;;;;2.40;2.10;;;29.50;99.90;;;;;;5083657;28;20705;-77
2021/06/15 11:47:36;;;;;;;2.42;1.80;;;30.60;99.90;;;;;;5075810;28;20233;-77
2021/06/15 11:50:21;;;;;;;2.50;2.00;;;31.00;99.90;;;;;;5086174;28;20229;-77
2021/06/15 11:52:57;;;;;;;5.32;2.00;;;30.10;99.90;;;;;;5068386;28;20195;-77
2021/06/15 11:55:29;;;;;;;3.20;2.15;;;29.40;99.90;;;;;;5086906;28;20230;-77
2021/06/15 11:58:06;;;;;;;4.63;2.38;;;28.90;99.90;;;;;;5080123;28;20231;-76
2021/06/15 12:00:37;;;;;;;3.83;2.00;;;29.50;99.90;;;;;;5077061;28;20211;-76
2021/06/15 12:03:13;;;;;;;3.85;2.30;;;30.00;99.90;;;;;;5090565;28;20191;-75
2021/06/15 12:05:43;;;;;;;4.90;2.30;;;29.60;99.90;;;;;;5072932;28;20223;-77
2021/06/15 12:08:10;;;;;;;2.13;1.83;;;29.70;99.90;;;;;;5074764;28;20271;-78
2021/06/15 12:10:39;;;;;;;3.15;2.40;;;29.30;99.90;;;;;;5081377;28;20292;-77
2021/06/15 12:13:11;;;;;;;6.78;2.78;;;28.70;99.90;;;;;;5078112;28;20634;-76
2021/06/15 12:15:59;;;;;;;3.58;2.20;;;29.10;99.90;;;;;;5089224;28;20230;-76
2021/06/15 12:18:38;;;;;;;5.20;2.10;;;29.20;99.90;;;;;;5088832;28;20613;-75
2021/06/15 12:21:08;;;;;;;3.58;2.28;;;28.90;99.90;;;;;;5078658;28;20285;-77
2021/06/15 12:23:39;;;;;;;6.07;2.20;;;28.80;99.90;;;;;;5081565;28;20256;-76
2021/06/15 12:26:23;;;;;;;2.67;2.47;;;29.30;99.90;;;;;;5075798;28;20253;-76
2021/06/15 12:28:53;;;;;;;3.47;2.10;;;30.20;99.90;;;;;;5079308;28;20198;-77
2021/06/15 12:31:23;;;;;;;5.07;2.63;;;30.80;99.90;;;;;;5073572;28;20192;-76
2021/06/15 12:33:53;;;;;;;4.70;2.50;;;30.60;99.90;;;;;;5070050;28;20648;-77
2021/06/15 12:36:22;;;;;;;6.47;2.50;;;29.80;99.90;;;;;;5074600;28;20218;-76
2021/06/15 12:38:49;;;;;;;2.28;1.85;;;30.10;99.90;;;;;;5081208;28;20206;-76
2021/06/15 12:41:20;;;;;;;5.15;2.20;;;30.20;99.90;;;;;;5087340;28;20294;-78
2021/06/15 12:43:48;;;;;;;5.45;2.25;;;30.00;99.90;;;;;;5075129;28;20713;-77
2021/06/15 12:46:29;;;;;;;8.02;2.53;;;29.90;99.90;;;;;;5080014;28;20226;-76
2021/06/15 12:48:59;;;;;;;4.65;2.13;;;30.30;99.90;;;;;;5077468;28;20518;-77
2021/06/15 12:51:29;;;;;;;3.88;2.13;;;29.80;99.90;;;;;;5085911;28;20242;-76
2021/06/15 12:54:02;;;;;;;6.65;2.72;;;29.90;99.90;;;;;;5078425;28;20697;-77